カンクン の空港の天気 - METARとTAF

カンクン国際空港 ( MMUN / CUN ) - メキシコ キンタナ・ロー州カンクン
飛行場実況気象(Metar)
観測時間01/21 01:44 CST (01/21 07:44 UTC)
風向・風速東北東 3m/s
視程9650m
天気現象弱い雨
全天の4割程度の雲 雲底高度 460m
全天の8割程度の雲 雲底高度 2440m
全天の8割程度の雲 雲底高度 7620m
気温24℃
湿度78%
気圧1017hPa
METARMMUN 210744Z 06005KT 6SM -RA SCT015 BKN080 BKN250 24/20 A3004 RMK 60005 8/578 -RAB30
過去の天気等 Google飛行場航空写真 Wunderground天気予報

過去48時間のMETAR

飛行場予報(TAF)
発表時間: 1/21 02:16 CST (1/21 08:16 UTC)
予報対象時間: 21日2時 CST ~ 22日6時 CST
風向・風速北東 3m/s
視程10km以上
全天の4割程度の雲 雲底高度 460m
全天の8割程度の雲 雲底高度 2,440m
全天の8割程度の雲 雲底高度 7,620m
21日2時 CST ~ 21日6時 CST に一時的に
視程8,050m
天気現象弱い雨
全天の8割程度の雲 雲底高度 460m
21日12時 CST から
風向・風速東 5m/s
視程10km以上
全天の8割程度の雲 雲底高度 460m
全天を覆う雲 雲底高度 2,440m
21日14時 CST ~ 21日16時 CST に徐々に
視程8,050m
天気現象弱い雨
22日2時 CST ~ 22日6時 CST に一時的に
視程4,830m
天気現象雷雨
全天の8割程度の積乱雲 雲底高度 460m
TAF AMD MMUN 210816Z 2108/2212 05005KT P6SM SCT015 BKN080 BKN250 TX26/2119Z TN17/2112Z
TEMPO 2108/2112 5SM -RA BKN015
FM211800 08010KT P6SM BKN015 OVC080
BECMG 2120/2122 5SM -RA
TEMPO 2208/2212 3SM TSRA BKN015CB